sensor_id;sensor_type;location;lat;lon;timestamp;P1;durP1;ratioP1;P2;durP2;ratioP2
16878;SDS011;8556;52.218;9.884;2023-03-01T00:01:38;23.60;;;15.20;;
16878;SDS011;8556;52.218;9.884;2023-03-01T00:04:05;20.83;;;13.63;;
16878;SDS011;8556;52.218;9.884;2023-03-01T00:06:32;20.97;;;13.83;;
16878;SDS011;8556;52.218;9.884;2023-03-01T00:08:59;19.50;;;12.73;;
16878;SDS011;8556;52.218;9.884;2023-03-01T00:11:26;17.27;;;12.37;;
16878;SDS011;8556;52.218;9.884;2023-03-01T00:13:55;20.20;;;13.40;;
16878;SDS011;8556;52.218;9.884;2023-03-01T00:16:25;22.10;;;13.07;;
16878;SDS011;8556;52.218;9.884;2023-03-01T00:18:53;20.87;;;13.53;;
16878;SDS011;8556;52.218;9.884;2023-03-01T00:21:20;20.83;;;12.73;;
16878;SDS011;8556;52.218;9.884;2023-03-01T00:23:48;20.13;;;12.93;;
16878;SDS011;8556;52.218;9.884;2023-03-01T00:26:16;19.57;;;12.70;;
16878;SDS011;8556;52.218;9.884;2023-03-01T00:28:44;19.57;;;11.90;;
16878;SDS011;8556;52.218;9.884;2023-03-01T00:31:12;20.47;;;12.50;;
16878;SDS011;8556;52.218;9.884;2023-03-01T00:33:41;18.00;;;11.13;;
16878;SDS011;8556;52.218;9.884;2023-03-01T00:36:10;19.60;;;11.90;;
16878;SDS011;8556;52.218;9.884;2023-03-01T00:38:39;24.33;;;11.67;;
16878;SDS011;8556;52.218;9.884;2023-03-01T00:41:07;16.77;;;10.47;;
16878;SDS011;8556;52.218;9.884;2023-03-01T00:43:36;19.13;;;11.60;;
16878;SDS011;8556;52.218;9.884;2023-03-01T00:46:04;19.30;;;12.10;;
16878;SDS011;8556;52.218;9.884;2023-03-01T00:48:33;17.50;;;11.43;;
16878;SDS011;8556;52.218;9.884;2023-03-01T00:51:05;18.63;;;11.33;;
16878;SDS011;8556;52.218;9.884;2023-03-01T00:53:33;20.13;;;12.10;;
16878;SDS011;8556;52.218;9.884;2023-03-01T00:56:00;20.87;;;12.37;;
16878;SDS011;8556;52.218;9.884;2023-03-01T00:58:27;17.83;;;10.97;;
16878;SDS011;8556;52.218;9.884;2023-03-01T01:00:53;16.43;;;10.83;;
16878;SDS011;8556;52.218;9.884;2023-03-01T01:03:21;17.03;;;11.33;;
16878;SDS011;8556;52.218;9.884;2023-03-01T01:05:49;17.97;;;11.33;;
16878;SDS011;8556;52.218;9.884;2023-03-01T01:08:17;19.13;;;10.80;;
16878;SDS011;8556;52.218;9.884;2023-03-01T01:10:44;18.60;;;11.70;;
16878;SDS011;8556;52.218;9.884;2023-03-01T01:13:12;15.83;;;10.77;;
16878;SDS011;8556;52.218;9.884;2023-03-01T01:15:40;19.10;;;11.70;;
16878;SDS011;8556;52.218;9.884;2023-03-01T01:18:07;18.87;;;12.17;;
16878;SDS011;8556;52.218;9.884;2023-03-01T01:20:34;18.97;;;12.00;;
16878;SDS011;8556;52.218;9.884;2023-03-01T01:23:02;18.53;;;11.67;;
16878;SDS011;8556;52.218;9.884;2023-03-01T01:25:34;16.80;;;10.73;;
16878;SDS011;8556;52.218;9.884;2023-03-01T01:28:02;18.13;;;11.90;;
16878;SDS011;8556;52.218;9.884;2023-03-01T01:30:29;18.13;;;11.33;;
16878;SDS011;8556;52.218;9.884;2023-03-01T01:32:56;19.33;;;12.00;;
16878;SDS011;8556;52.218;9.884;2023-03-01T01:35:22;18.63;;;12.23;;
16878;SDS011;8556;52.218;9.884;2023-03-01T01:37:49;18.00;;;11.37;;
16878;SDS011;8556;52.218;9.884;2023-03-01T01:40:16;17.87;;;11.57;;
16878;SDS011;8556;52.218;9.884;2023-03-01T01:42:44;18.80;;;11.30;;
16878;SDS011;8556;52.218;9.884;2023-03-01T01:45:28;19.93;;;11.87;;
16878;SDS011;8556;52.218;9.884;2023-03-01T01:47:58;18.93;;;11.53;;
16878;SDS011;8556;52.218;9.884;2023-03-01T01:50:29;17.77;;;11.73;;
16878;SDS011;8556;52.218;9.884;2023-03-01T01:53:02;16.90;;;11.00;;
16878;SDS011;8556;52.218;9.884;2023-03-01T01:55:38;18.17;;;11.00;;
16878;SDS011;8556;52.218;9.884;2023-03-01T01:58:10;19.03;;;10.77;;
16878;SDS011;8556;52.218;9.884;2023-03-01T02:00:39;18.20;;;10.97;;
16878;SDS011;8556;52.218;9.884;2023-03-01T02:03:08;18.20;;;11.37;;
16878;SDS011;8556;52.218;9.884;2023-03-01T02:05:47;18.43;;;12.10;;
16878;SDS011;8556;52.218;9.884;2023-03-01T02:08:18;19.53;;;11.77;;
16878;SDS011;8556;52.218;9.884;2023-03-01T02:10:46;18.57;;;10.87;;
16878;SDS011;8556;52.218;9.884;2023-03-01T02:13:16;17.03;;;11.17;;
16878;SDS011;8556;52.218;9.884;2023-03-01T02:15:43;18.13;;;10.87;;
16878;SDS011;8556;52.218;9.884;2023-03-01T02:18:11;17.53;;;11.53;;
16878;SDS011;8556;52.218;9.884;2023-03-01T02:20:44;16.67;;;10.23;;
16878;SDS011;8556;52.218;9.884;2023-03-01T02:23:19;18.27;;;11.30;;
16878;SDS011;8556;52.218;9.884;2023-03-01T02:25:49;18.70;;;11.20;;
16878;SDS011;8556;52.218;9.884;2023-03-01T02:28:27;18.77;;;11.03;;
16878;SDS011;8556;52.218;9.884;2023-03-01T02:30:56;18.30;;;11.67;;
16878;SDS011;8556;52.218;9.884;2023-03-01T02:33:40;18.37;;;11.40;;
16878;SDS011;8556;52.218;9.884;2023-03-01T02:36:09;18.23;;;10.97;;
16878;SDS011;8556;52.218;9.884;2023-03-01T02:38:40;17.93;;;10.97;;
16878;SDS011;8556;52.218;9.884;2023-03-01T02:41:07;18.37;;;10.90;;
16878;SDS011;8556;52.218;9.884;2023-03-01T02:43:38;18.60;;;10.03;;
16878;SDS011;8556;52.218;9.884;2023-03-01T02:46:06;16.37;;;10.60;;
16878;SDS011;8556;52.218;9.884;2023-03-01T02:48:41;17.50;;;11.53;;
16878;SDS011;8556;52.218;9.884;2023-03-01T02:51:11;18.87;;;11.17;;
16878;SDS011;8556;52.218;9.884;2023-03-01T02:53:49;20.23;;;11.47;;
16878;SDS011;8556;52.218;9.884;2023-03-01T02:56:25;16.43;;;10.57;;
16878;SDS011;8556;52.218;9.884;2023-03-01T02:58:53;18.17;;;10.77;;
16878;SDS011;8556;52.218;9.884;2023-03-01T03:01:25;17.60;;;11.17;;
16878;SDS011;8556;52.218;9.884;2023-03-01T03:04:01;16.57;;;10.97;;
16878;SDS011;8556;52.218;9.884;2023-03-01T03:06:28;16.13;;;10.77;;
16878;SDS011;8556;52.218;9.884;2023-03-01T03:08:55;17.87;;;11.30;;
16878;SDS011;8556;52.218;9.884;2023-03-01T03:11:22;16.40;;;10.87;;
16878;SDS011;8556;52.218;9.884;2023-03-01T03:13:49;16.97;;;10.93;;
16878;SDS011;8556;52.218;9.884;2023-03-01T03:16:18;17.43;;;10.83;;
16878;SDS011;8556;52.218;9.884;2023-03-01T03:18:45;16.60;;;10.77;;
16878;SDS011;8556;52.218;9.884;2023-03-01T03:21:12;17.47;;;10.57;;
16878;SDS011;8556;52.218;9.884;2023-03-01T03:23:39;17.93;;;10.60;;
16878;SDS011;8556;52.218;9.884;2023-03-01T03:26:06;19.23;;;11.80;;
16878;SDS011;8556;52.218;9.884;2023-03-01T03:28:33;18.13;;;11.70;;
16878;SDS011;8556;52.218;9.884;2023-03-01T03:31:05;22.50;;;13.03;;
16878;SDS011;8556;52.218;9.884;2023-03-01T03:33:34;20.00;;;13.13;;
16878;SDS011;8556;52.218;9.884;2023-03-01T03:36:01;17.70;;;10.63;;
16878;SDS011;8556;52.218;9.884;2023-03-01T03:38:27;18.73;;;10.77;;
16878;SDS011;8556;52.218;9.884;2023-03-01T03:40:59;18.63;;;12.20;;
16878;SDS011;8556;52.218;9.884;2023-03-01T03:43:27;20.13;;;12.17;;
16878;SDS011;8556;52.218;9.884;2023-03-01T03:45:54;19.50;;;11.63;;
16878;SDS011;8556;52.218;9.884;2023-03-01T03:48:23;18.73;;;11.70;;
16878;SDS011;8556;52.218;9.884;2023-03-01T03:50:52;17.07;;;10.73;;
16878;SDS011;8556;52.218;9.884;2023-03-01T03:53:21;17.23;;;10.80;;
16878;SDS011;8556;52.218;9.884;2023-03-01T03:55:49;17.90;;;10.70;;
16878;SDS011;8556;52.218;9.884;2023-03-01T03:58:16;18.07;;;10.27;;
16878;SDS011;8556;52.218;9.884;2023-03-01T04:00:46;17.17;;;10.40;;
16878;SDS011;8556;52.218;9.884;2023-03-01T04:03:15;18.33;;;11.33;;
16878;SDS011;8556;52.218;9.884;2023-03-01T04:05:44;17.30;;;10.33;;
16878;SDS011;8556;52.218;9.884;2023-03-01T04:08:13;18.67;;;10.13;;
16878;SDS011;8556;52.218;9.884;2023-03-01T04:10:40;19.23;;;10.07;;
16878;SDS011;8556;52.218;9.884;2023-03-01T04:13:09;18.80;;;10.70;;
16878;SDS011;8556;52.218;9.884;2023-03-01T04:15:38;16.50;;;10.93;;
16878;SDS011;8556;52.218;9.884;2023-03-01T04:18:05;19.33;;;11.00;;
16878;SDS011;8556;52.218;9.884;2023-03-01T04:20:33;17.43;;;9.87;;
16878;SDS011;8556;52.218;9.884;2023-03-01T04:23:01;19.07;;;11.13;;
16878;SDS011;8556;52.218;9.884;2023-03-01T04:25:36;16.83;;;10.33;;
16878;SDS011;8556;52.218;9.884;2023-03-01T04:28:04;17.73;;;10.67;;
16878;SDS011;8556;52.218;9.884;2023-03-01T04:30:32;18.67;;;10.90;;
16878;SDS011;8556;52.218;9.884;2023-03-01T04:33:01;16.67;;;10.73;;
16878;SDS011;8556;52.218;9.884;2023-03-01T04:35:29;18.03;;;10.83;;
16878;SDS011;8556;52.218;9.884;2023-03-01T04:37:56;18.70;;;11.47;;
16878;SDS011;8556;52.218;9.884;2023-03-01T04:40:23;20.60;;;12.23;;
16878;SDS011;8556;52.218;9.884;2023-03-01T04:42:51;16.93;;;10.93;;
16878;SDS011;8556;52.218;9.884;2023-03-01T04:45:18;19.47;;;11.47;;
16878;SDS011;8556;52.218;9.884;2023-03-01T04:47:45;19.67;;;11.10;;
16878;SDS011;8556;52.218;9.884;2023-03-01T04:50:13;19.63;;;12.03;;
16878;SDS011;8556;52.218;9.884;2023-03-01T04:52:41;16.57;;;10.73;;
16878;SDS011;8556;52.218;9.884;2023-03-01T04:55:08;17.90;;;10.97;;
16878;SDS011;8556;52.218;9.884;2023-03-01T04:57:35;17.90;;;11.13;;
16878;SDS011;8556;52.218;9.884;2023-03-01T05:00:04;17.47;;;10.13;;
16878;SDS011;8556;52.218;9.884;2023-03-01T05:02:45;18.77;;;11.87;;
16878;SDS011;8556;52.218;9.884;2023-03-01T05:05:14;20.13;;;11.67;;
16878;SDS011;8556;52.218;9.884;2023-03-01T05:07:40;21.27;;;11.53;;
16878;SDS011;8556;52.218;9.884;2023-03-01T05:10:08;18.97;;;11.40;;
16878;SDS011;8556;52.218;9.884;2023-03-01T05:12:36;17.33;;;11.00;;
16878;SDS011;8556;52.218;9.884;2023-03-01T05:15:05;18.77;;;11.60;;
16878;SDS011;8556;52.218;9.884;2023-03-01T05:17:32;19.93;;;11.77;;
16878;SDS011;8556;52.218;9.884;2023-03-01T05:20:00;20.00;;;11.23;;
16878;SDS011;8556;52.218;9.884;2023-03-01T05:22:30;19.77;;;11.60;;
16878;SDS011;8556;52.218;9.884;2023-03-01T05:24:57;19.20;;;11.13;;
16878;SDS011;8556;52.218;9.884;2023-03-01T05:27:24;21.90;;;11.80;;
16878;SDS011;8556;52.218;9.884;2023-03-01T05:29:51;21.03;;;12.50;;
16878;SDS011;8556;52.218;9.884;2023-03-01T05:32:19;21.00;;;12.20;;
16878;SDS011;8556;52.218;9.884;2023-03-01T05:34:46;18.60;;;12.33;;
16878;SDS011;8556;52.218;9.884;2023-03-01T05:37:12;22.73;;;13.43;;
16878;SDS011;8556;52.218;9.884;2023-03-01T05:39:39;21.47;;;13.37;;
16878;SDS011;8556;52.218;9.884;2023-03-01T05:42:09;21.73;;;12.87;;
16878;SDS011;8556;52.218;9.884;2023-03-01T05:44:38;20.77;;;12.70;;
16878;SDS011;8556;52.218;9.884;2023-03-01T05:47:05;21.47;;;12.63;;
16878;SDS011;8556;52.218;9.884;2023-03-01T05:49:33;21.87;;;13.07;;
16878;SDS011;8556;52.218;9.884;2023-03-01T05:52:00;20.10;;;12.97;;
16878;SDS011;8556;52.218;9.884;2023-03-01T05:54:27;19.27;;;12.37;;
16878;SDS011;8556;52.218;9.884;2023-03-01T05:56:54;23.47;;;13.10;;
16878;SDS011;8556;52.218;9.884;2023-03-01T05:59:21;19.47;;;12.47;;
16878;SDS011;8556;52.218;9.884;2023-03-01T06:01:48;23.40;;;13.00;;
16878;SDS011;8556;52.218;9.884;2023-03-01T06:04:15;21.03;;;12.23;;
16878;SDS011;8556;52.218;9.884;2023-03-01T06:06:44;20.90;;;12.13;;
16878;SDS011;8556;52.218;9.884;2023-03-01T06:09:10;20.83;;;12.53;;
16878;SDS011;8556;52.218;9.884;2023-03-01T06:11:37;23.17;;;13.43;;
16878;SDS011;8556;52.218;9.884;2023-03-01T06:14:05;21.43;;;13.40;;
16878;SDS011;8556;52.218;9.884;2023-03-01T06:16:35;21.00;;;12.07;;
16878;SDS011;8556;52.218;9.884;2023-03-01T06:19:02;19.00;;;12.37;;
16878;SDS011;8556;52.218;9.884;2023-03-01T06:21:29;19.60;;;11.97;;
16878;SDS011;8556;52.218;9.884;2023-03-01T06:23:57;20.83;;;12.07;;
16878;SDS011;8556;52.218;9.884;2023-03-01T06:26:23;20.20;;;11.47;;
16878;SDS011;8556;52.218;9.884;2023-03-01T06:28:50;20.93;;;11.43;;
16878;SDS011;8556;52.218;9.884;2023-03-01T06:31:17;18.30;;;11.47;;
16878;SDS011;8556;52.218;9.884;2023-03-01T06:33:44;20.53;;;11.80;;
16878;SDS011;8556;52.218;9.884;2023-03-01T06:36:11;19.17;;;11.67;;
16878;SDS011;8556;52.218;9.884;2023-03-01T06:38:37;19.57;;;11.83;;
16878;SDS011;8556;52.218;9.884;2023-03-01T06:41:07;21.40;;;12.03;;
16878;SDS011;8556;52.218;9.884;2023-03-01T06:43:33;19.60;;;11.93;;
16878;SDS011;8556;52.218;9.884;2023-03-01T06:46:03;20.30;;;12.47;;
16878;SDS011;8556;52.218;9.884;2023-03-01T06:48:30;20.50;;;11.43;;
16878;SDS011;8556;52.218;9.884;2023-03-01T06:50:57;18.53;;;11.97;;
16878;SDS011;8556;52.218;9.884;2023-03-01T06:53:25;20.33;;;12.63;;
16878;SDS011;8556;52.218;9.884;2023-03-01T06:55:53;19.60;;;12.87;;
16878;SDS011;8556;52.218;9.884;2023-03-01T06:58:22;22.13;;;11.67;;
16878;SDS011;8556;52.218;9.884;2023-03-01T07:00:49;23.30;;;12.60;;
16878;SDS011;8556;52.218;9.884;2023-03-01T07:03:16;24.87;;;12.60;;
16878;SDS011;8556;52.218;9.884;2023-03-01T07:05:42;21.37;;;11.77;;
16878;SDS011;8556;52.218;9.884;2023-03-01T07:08:10;22.57;;;11.93;;
16878;SDS011;8556;52.218;9.884;2023-03-01T07:10:37;21.17;;;12.50;;
16878;SDS011;8556;52.218;9.884;2023-03-01T07:13:04;18.67;;;11.00;;
16878;SDS011;8556;52.218;9.884;2023-03-01T07:15:33;19.27;;;11.17;;
16878;SDS011;8556;52.218;9.884;2023-03-01T07:18:00;20.97;;;11.97;;
16878;SDS011;8556;52.218;9.884;2023-03-01T07:20:26;22.23;;;11.93;;
16878;SDS011;8556;52.218;9.884;2023-03-01T07:22:54;18.50;;;11.50;;
16878;SDS011;8556;52.218;9.884;2023-03-01T07:25:21;20.60;;;11.63;;
16878;SDS011;8556;52.218;9.884;2023-03-01T07:27:49;19.43;;;10.83;;
16878;SDS011;8556;52.218;9.884;2023-03-01T07:30:17;23.40;;;13.20;;
16878;SDS011;8556;52.218;9.884;2023-03-01T07:32:45;24.30;;;12.20;;
16878;SDS011;8556;52.218;9.884;2023-03-01T07:35:12;26.10;;;12.00;;
16878;SDS011;8556;52.218;9.884;2023-03-01T07:37:39;22.77;;;12.50;;
16878;SDS011;8556;52.218;9.884;2023-03-01T07:40:07;22.40;;;11.57;;
16878;SDS011;8556;52.218;9.884;2023-03-01T07:42:34;20.60;;;12.30;;
16878;SDS011;8556;52.218;9.884;2023-03-01T07:45:01;21.27;;;11.70;;
16878;SDS011;8556;52.218;9.884;2023-03-01T07:47:28;19.90;;;10.07;;
16878;SDS011;8556;52.218;9.884;2023-03-01T07:49:56;18.10;;;9.93;;
16878;SDS011;8556;52.218;9.884;2023-03-01T07:52:23;17.53;;;9.87;;
16878;SDS011;8556;52.218;9.884;2023-03-01T07:54:50;17.17;;;10.07;;
16878;SDS011;8556;52.218;9.884;2023-03-01T07:57:17;17.67;;;9.47;;
16878;SDS011;8556;52.218;9.884;2023-03-01T07:59:44;16.57;;;9.63;;
16878;SDS011;8556;52.218;9.884;2023-03-01T08:02:11;18.97;;;10.63;;
16878;SDS011;8556;52.218;9.884;2023-03-01T08:04:38;20.60;;;10.13;;
16878;SDS011;8556;52.218;9.884;2023-03-01T08:07:06;17.53;;;10.43;;
16878;SDS011;8556;52.218;9.884;2023-03-01T08:09:34;19.87;;;11.03;;
16878;SDS011;8556;52.218;9.884;2023-03-01T08:12:01;17.30;;;10.07;;
16878;SDS011;8556;52.218;9.884;2023-03-01T08:14:29;16.47;;;10.57;;
16878;SDS011;8556;52.218;9.884;2023-03-01T08:16:56;18.73;;;11.20;;
16878;SDS011;8556;52.218;9.884;2023-03-01T08:19:23;21.10;;;10.90;;
16878;SDS011;8556;52.218;9.884;2023-03-01T08:21:50;16.13;;;9.90;;
16878;SDS011;8556;52.218;9.884;2023-03-01T08:24:18;16.77;;;11.20;;
16878;SDS011;8556;52.218;9.884;2023-03-01T08:26:45;18.10;;;11.20;;
16878;SDS011;8556;52.218;9.884;2023-03-01T08:29:11;18.20;;;11.90;;
16878;SDS011;8556;52.218;9.884;2023-03-01T08:31:39;17.07;;;11.17;;
16878;SDS011;8556;52.218;9.884;2023-03-01T08:34:07;21.13;;;12.20;;
16878;SDS011;8556;52.218;9.884;2023-03-01T08:36:36;22.33;;;12.47;;
16878;SDS011;8556;52.218;9.884;2023-03-01T08:39:05;18.40;;;11.50;;
16878;SDS011;8556;52.218;9.884;2023-03-01T08:41:34;19.47;;;12.17;;
16878;SDS011;8556;52.218;9.884;2023-03-01T08:44:01;20.37;;;12.00;;
16878;SDS011;8556;52.218;9.884;2023-03-01T08:46:28;18.80;;;11.90;;
16878;SDS011;8556;52.218;9.884;2023-03-01T08:48:56;21.03;;;12.40;;
16878;SDS011;8556;52.218;9.884;2023-03-01T08:51:23;21.90;;;12.90;;
16878;SDS011;8556;52.218;9.884;2023-03-01T08:53:51;24.27;;;13.10;;
16878;SDS011;8556;52.218;9.884;2023-03-01T08:56:18;22.23;;;12.07;;
16878;SDS011;8556;52.218;9.884;2023-03-01T08:58:47;21.40;;;12.97;;
16878;SDS011;8556;52.218;9.884;2023-03-01T09:01:15;19.90;;;13.03;;
16878;SDS011;8556;52.218;9.884;2023-03-01T09:03:44;21.13;;;11.83;;
16878;SDS011;8556;52.218;9.884;2023-03-01T09:06:11;25.57;;;13.07;;
16878;SDS011;8556;52.218;9.884;2023-03-01T09:08:39;23.33;;;12.73;;
16878;SDS011;8556;52.218;9.884;2023-03-01T09:11:08;22.47;;;12.10;;
16878;SDS011;8556;52.218;9.884;2023-03-01T09:13:36;23.73;;;12.17;;
16878;SDS011;8556;52.218;9.884;2023-03-01T09:16:05;24.03;;;12.37;;
16878;SDS011;8556;52.218;9.884;2023-03-01T09:18:33;26.83;;;12.70;;
16878;SDS011;8556;52.218;9.884;2023-03-01T09:21:01;26.20;;;13.13;;
16878;SDS011;8556;52.218;9.884;2023-03-01T09:23:32;27.27;;;14.00;;
16878;SDS011;8556;52.218;9.884;2023-03-01T09:25:59;25.63;;;13.43;;
16878;SDS011;8556;52.218;9.884;2023-03-01T09:28:26;25.23;;;12.77;;
16878;SDS011;8556;52.218;9.884;2023-03-01T09:30:53;25.30;;;11.90;;
16878;SDS011;8556;52.218;9.884;2023-03-01T09:33:21;25.00;;;13.33;;
16878;SDS011;8556;52.218;9.884;2023-03-01T09:35:47;21.33;;;10.87;;
16878;SDS011;8556;52.218;9.884;2023-03-01T09:38:14;14.43;;;8.40;;
16878;SDS011;8556;52.218;9.884;2023-03-01T09:40:42;16.23;;;9.00;;
16878;SDS011;8556;52.218;9.884;2023-03-01T09:43:13;19.07;;;10.30;;
16878;SDS011;8556;52.218;9.884;2023-03-01T09:45:44;20.93;;;10.73;;
16878;SDS011;8556;52.218;9.884;2023-03-01T09:48:16;16.83;;;9.90;;
16878;SDS011;8556;52.218;9.884;2023-03-01T09:50:48;22.93;;;10.17;;
16878;SDS011;8556;52.218;9.884;2023-03-01T09:53:16;18.37;;;10.37;;
16878;SDS011;8556;52.218;9.884;2023-03-01T09:55:46;18.77;;;10.60;;
16878;SDS011;8556;52.218;9.884;2023-03-01T10:01:10;20.20;;;9.40;;
16878;SDS011;8556;52.218;9.884;2023-03-01T10:04:00;15.97;;;8.77;;
16878;SDS011;8556;52.218;9.884;2023-03-01T10:06:34;15.77;;;8.80;;
16878;SDS011;8556;52.218;9.884;2023-03-01T10:09:02;16.00;;;8.03;;
16878;SDS011;8556;52.218;9.884;2023-03-01T10:11:32;16.83;;;8.10;;
16878;SDS011;8556;52.218;9.884;2023-03-01T10:14:03;12.40;;;7.03;;
16878;SDS011;8556;52.218;9.884;2023-03-01T10:16:40;15.17;;;7.87;;
16878;SDS011;8556;52.218;9.884;2023-03-01T10:19:16;12.87;;;6.90;;
16878;SDS011;8556;52.218;9.884;2023-03-01T10:21:49;13.57;;;7.33;;
16878;SDS011;8556;52.218;9.884;2023-03-01T10:24:18;15.53;;;8.17;;
16878;SDS011;8556;52.218;9.884;2023-03-01T10:26:53;12.67;;;6.33;;
16878;SDS011;8556;52.218;9.884;2023-03-01T10:29:23;13.33;;;7.67;;
16878;SDS011;8556;52.218;9.884;2023-03-01T10:31:55;16.53;;;8.50;;
16878;SDS011;8556;52.218;9.884;2023-03-01T10:34:26;14.23;;;7.60;;
16878;SDS011;8556;52.218;9.884;2023-03-01T10:36:57;13.87;;;7.13;;
16878;SDS011;8556;52.218;9.884;2023-03-01T10:39:27;13.43;;;7.10;;
16878;SDS011;8556;52.218;9.884;2023-03-01T10:41:55;13.33;;;7.93;;
16878;SDS011;8556;52.218;9.884;2023-03-01T10:44:35;11.20;;;5.70;;
16878;SDS011;8556;52.218;9.884;2023-03-01T10:47:04;15.00;;;7.07;;
16878;SDS011;8556;52.218;9.884;2023-03-01T10:49:37;13.33;;;6.87;;
16878;SDS011;8556;52.218;9.884;2023-03-01T10:52:16;13.47;;;7.17;;
16878;SDS011;8556;52.218;9.884;2023-03-01T10:54:50;12.60;;;6.80;;
16878;SDS011;8556;52.218;9.884;2023-03-01T10:57:27;13.93;;;7.47;;
16878;SDS011;8556;52.218;9.884;2023-03-01T11:00:13;12.30;;;6.93;;
16878;SDS011;8556;52.218;9.884;2023-03-01T11:03:01;14.60;;;7.63;;
16878;SDS011;8556;52.218;9.884;2023-03-01T11:05:35;11.30;;;6.30;;
16878;SDS011;8556;52.218;9.884;2023-03-01T11:08:03;13.50;;;6.83;;
16878;SDS011;8556;52.218;9.884;2023-03-01T11:10:30;13.83;;;6.70;;
16878;SDS011;8556;52.218;9.884;2023-03-01T11:13:05;12.17;;;6.40;;
16878;SDS011;8556;52.218;9.884;2023-03-01T11:15:34;12.47;;;6.93;;
16878;SDS011;8556;52.218;9.884;2023-03-01T11:18:02;12.00;;;6.73;;
16878;SDS011;8556;52.218;9.884;2023-03-01T11:20:29;10.93;;;6.30;;
16878;SDS011;8556;52.218;9.884;2023-03-01T11:22:59;11.97;;;6.20;;
16878;SDS011;8556;52.218;9.884;2023-03-01T11:25:33;11.73;;;5.40;;
16878;SDS011;8556;52.218;9.884;2023-03-01T11:28:03;11.97;;;6.17;;
16878;SDS011;8556;52.218;9.884;2023-03-01T11:30:32;12.33;;;6.63;;
16878;SDS011;8556;52.218;9.884;2023-03-01T11:33:08;10.70;;;5.57;;
16878;SDS011;8556;52.218;9.884;2023-03-01T11:35:43;11.73;;;5.93;;
16878;SDS011;8556;52.218;9.884;2023-03-01T11:38:16;12.20;;;6.00;;
16878;SDS011;8556;52.218;9.884;2023-03-01T11:40:51;11.03;;;5.80;;
16878;SDS011;8556;52.218;9.884;2023-03-01T11:43:26;12.43;;;6.57;;
16878;SDS011;8556;52.218;9.884;2023-03-01T11:49:11;12.20;;;5.90;;
16878;SDS011;8556;52.218;9.884;2023-03-01T11:52:06;12.27;;;6.07;;
16878;SDS011;8556;52.218;9.884;2023-03-01T11:54:46;9.13;;;4.83;;
16878;SDS011;8556;52.218;9.884;2023-03-01T11:57:30;8.60;;;5.37;;
16878;SDS011;8556;52.218;9.884;2023-03-01T12:00:13;13.50;;;6.10;;
16878;SDS011;8556;52.218;9.884;2023-03-01T12:03:00;10.63;;;5.60;;
16878;SDS011;8556;52.218;9.884;2023-03-01T12:05:54;13.60;;;6.70;;
16878;SDS011;8556;52.218;9.884;2023-03-01T12:08:56;13.47;;;6.30;;
16878;SDS011;8556;52.218;9.884;2023-03-01T12:11:36;11.00;;;5.80;;
16878;SDS011;8556;52.218;9.884;2023-03-01T12:14:20;11.70;;;5.60;;
16878;SDS011;8556;52.218;9.884;2023-03-01T12:20:06;9.13;;;4.63;;
16878;SDS011;8556;52.218;9.884;2023-03-01T12:22:44;10.37;;;5.50;;
16878;SDS011;8556;52.218;9.884;2023-03-01T12:25:21;9.40;;;5.23;;
16878;SDS011;8556;52.218;9.884;2023-03-01T12:30:57;11.67;;;5.40;;
16878;SDS011;8556;52.218;9.884;2023-03-01T12:33:40;10.80;;;5.17;;
16878;SDS011;8556;52.218;9.884;2023-03-01T12:36:20;10.63;;;5.10;;
16878;SDS011;8556;52.218;9.884;2023-03-01T12:39:14;9.93;;;5.47;;
16878;SDS011;8556;52.218;9.884;2023-03-01T12:41:55;10.43;;;5.23;;
16878;SDS011;8556;52.218;9.884;2023-03-01T12:44:35;9.30;;;5.27;;
16878;SDS011;8556;52.218;9.884;2023-03-01T12:47:16;10.60;;;4.97;;
16878;SDS011;8556;52.218;9.884;2023-03-01T12:49:52;9.67;;;4.70;;
16878;SDS011;8556;52.218;9.884;2023-03-01T12:52:22;9.70;;;5.03;;
16878;SDS011;8556;52.218;9.884;2023-03-01T12:54:55;8.93;;;5.13;;
16878;SDS011;8556;52.218;9.884;2023-03-01T12:57:25;11.60;;;6.07;;
16878;SDS011;8556;52.218;9.884;2023-03-01T13:00:04;10.37;;;5.93;;
16878;SDS011;8556;52.218;9.884;2023-03-01T13:02:47;9.57;;;5.00;;
16878;SDS011;8556;52.218;9.884;2023-03-01T13:05:26;10.57;;;5.43;;
16878;SDS011;8556;52.218;9.884;2023-03-01T13:08:01;9.77;;;5.40;;
16878;SDS011;8556;52.218;9.884;2023-03-01T13:10:39;9.53;;;5.50;;
16878;SDS011;8556;52.218;9.884;2023-03-01T13:13:14;9.73;;;5.37;;
16878;SDS011;8556;52.218;9.884;2023-03-01T13:15:46;9.47;;;4.80;;
16878;SDS011;8556;52.218;9.884;2023-03-01T13:18:31;9.53;;;4.97;;
16878;SDS011;8556;52.218;9.884;2023-03-01T13:20:59;7.77;;;4.27;;
16878;SDS011;8556;52.218;9.884;2023-03-01T13:23:29;8.47;;;4.80;;
16878;SDS011;8556;52.218;9.884;2023-03-01T13:26:03;10.60;;;5.33;;
16878;SDS011;8556;52.218;9.884;2023-03-01T13:28:46;8.40;;;5.03;;
16878;SDS011;8556;52.218;9.884;2023-03-01T13:34:43;7.20;;;3.73;;
16878;SDS011;8556;52.218;9.884;2023-03-01T13:37:18;6.70;;;4.10;;
16878;SDS011;8556;52.218;9.884;2023-03-01T13:39:46;7.33;;;4.40;;
16878;SDS011;8556;52.218;9.884;2023-03-01T13:45:16;9.13;;;4.17;;
16878;SDS011;8556;52.218;9.884;2023-03-01T13:47:50;6.73;;;3.63;;
16878;SDS011;8556;52.218;9.884;2023-03-01T13:50:24;8.83;;;4.37;;
16878;SDS011;8556;52.218;9.884;2023-03-01T13:52:54;6.80;;;4.07;;
16878;SDS011;8556;52.218;9.884;2023-03-01T13:55:24;7.17;;;3.90;;
16878;SDS011;8556;52.218;9.884;2023-03-01T13:57:56;7.40;;;4.00;;
16878;SDS011;8556;52.218;9.884;2023-03-01T14:00:27;8.03;;;4.40;;
16878;SDS011;8556;52.218;9.884;2023-03-01T14:03:00;6.27;;;3.43;;
16878;SDS011;8556;52.218;9.884;2023-03-01T14:05:31;8.13;;;4.40;;
16878;SDS011;8556;52.218;9.884;2023-03-01T14:07:57;8.23;;;4.70;;
16878;SDS011;8556;52.218;9.884;2023-03-01T14:10:25;9.67;;;4.07;;
16878;SDS011;8556;52.218;9.884;2023-03-01T14:13:02;10.07;;;5.00;;
16878;SDS011;8556;52.218;9.884;2023-03-01T14:15:44;8.97;;;4.30;;
16878;SDS011;8556;52.218;9.884;2023-03-01T14:18:17;9.27;;;4.27;;
16878;SDS011;8556;52.218;9.884;2023-03-01T14:20:50;8.23;;;4.43;;
16878;SDS011;8556;52.218;9.884;2023-03-01T14:23:18;8.63;;;4.40;;
16878;SDS011;8556;52.218;9.884;2023-03-01T14:25:48;7.67;;;4.60;;
16878;SDS011;8556;52.218;9.884;2023-03-01T14:28:16;8.27;;;4.40;;
16878;SDS011;8556;52.218;9.884;2023-03-01T14:30:47;9.73;;;4.77;;
16878;SDS011;8556;52.218;9.884;2023-03-01T14:33:18;6.97;;;3.83;;
16878;SDS011;8556;52.218;9.884;2023-03-01T14:35:57;5.67;;;3.30;;
16878;SDS011;8556;52.218;9.884;2023-03-01T14:38:29;5.10;;;3.43;;
16878;SDS011;8556;52.218;9.884;2023-03-01T14:41:00;7.47;;;4.13;;
16878;SDS011;8556;52.218;9.884;2023-03-01T14:43:29;6.83;;;4.20;;
16878;SDS011;8556;52.218;9.884;2023-03-01T14:45:57;6.57;;;3.63;;
16878;SDS011;8556;52.218;9.884;2023-03-01T14:48:24;6.90;;;3.90;;
16878;SDS011;8556;52.218;9.884;2023-03-01T14:50:53;7.13;;;4.00;;
16878;SDS011;8556;52.218;9.884;2023-03-01T14:53:21;8.10;;;4.07;;
16878;SDS011;8556;52.218;9.884;2023-03-01T14:55:51;6.90;;;3.90;;
16878;SDS011;8556;52.218;9.884;2023-03-01T14:58:21;7.20;;;3.43;;
16878;SDS011;8556;52.218;9.884;2023-03-01T15:00:50;8.70;;;4.40;;
16878;SDS011;8556;52.218;9.884;2023-03-01T15:03:20;6.50;;;3.77;;
16878;SDS011;8556;52.218;9.884;2023-03-01T15:05:51;5.50;;;3.60;;
16878;SDS011;8556;52.218;9.884;2023-03-01T15:08:20;7.97;;;3.97;;
16878;SDS011;8556;52.218;9.884;2023-03-01T15:10:56;5.73;;;3.20;;
16878;SDS011;8556;52.218;9.884;2023-03-01T15:13:29;6.37;;;3.20;;
16878;SDS011;8556;52.218;9.884;2023-03-01T15:16:01;7.50;;;3.80;;
16878;SDS011;8556;52.218;9.884;2023-03-01T15:18:31;7.43;;;4.00;;